createdAt,value
2018-10-16T00:05:27.627Z,12.60
2018-10-16T00:07:55.815Z,12.60
2018-10-16T00:10:29.543Z,12.60
2018-10-16T00:12:57.692Z,12.60
2018-10-16T00:15:25.967Z,12.50
2018-10-16T00:17:54.204Z,12.50
2018-10-16T01:22:05.747Z,11.80
2018-10-16T01:24:34.014Z,11.80
2018-10-16T01:27:02.232Z,11.80
2018-10-16T01:29:30.462Z,11.80
2018-10-16T01:31:58.670Z,11.80
2018-10-16T01:34:26.972Z,11.80
2018-10-16T01:36:55.162Z,11.70
2018-10-16T01:39:23.364Z,11.60
2018-10-16T01:41:51.622Z,11.60
2018-10-16T01:44:19.849Z,11.50
2018-10-16T01:46:48.130Z,11.40
2018-10-16T01:49:16.342Z,11.40
2018-10-16T01:51:44.533Z,11.30
2018-10-16T01:54:12.759Z,11.30
2018-10-16T01:56:40.906Z,11.30
2018-10-16T01:59:09.151Z,11.30
2018-10-16T02:01:37.342Z,11.30
2018-10-16T02:04:05.570Z,11.20
2018-10-16T02:06:33.822Z,11.20
2018-10-16T02:09:02.010Z,11.20
2018-10-16T02:11:30.232Z,11.10
2018-10-16T02:13:58.384Z,11.20
2018-10-16T02:16:26.674Z,11.20
2018-10-16T02:18:54.936Z,11.20
2018-10-16T02:21:23.115Z,11.20
2018-10-16T02:23:51.320Z,11.30
2018-10-16T02:26:19.556Z,11.30
2018-10-16T02:28:47.754Z,11.30
2018-10-16T02:31:15.948Z,11.20
2018-10-16T02:33:44.200Z,11.20
2018-10-16T02:36:12.396Z,11.10
2018-10-16T02:38:40.542Z,11.10
2018-10-16T02:41:08.732Z,11.10
2018-10-16T02:43:36.914Z,11.00
2018-10-16T02:46:05.906Z,11.00
2018-10-16T02:48:34.148Z,11.00
2018-10-16T02:51:02.412Z,11.00
2018-10-16T02:53:30.587Z,11.00
2018-10-16T02:55:58.760Z,10.90
2018-10-16T02:58:34.064Z,10.90
2018-10-16T03:01:02.274Z,10.80
2018-10-16T03:03:36.598Z,10.80
2018-10-16T03:06:04.868Z,10.70
2018-10-16T03:08:33.068Z,10.70
2018-10-16T03:11:01.511Z,10.70
2018-10-16T03:13:30.006Z,10.70
2018-10-16T03:15:58.242Z,10.70
2018-10-16T03:18:26.422Z,10.70
2018-10-16T03:20:54.627Z,10.70
2018-10-16T03:23:22.801Z,10.60
2018-10-16T03:25:50.989Z,10.60
2018-10-16T03:28:19.189Z,10.60
2018-10-16T03:30:47.421Z,10.60
2018-10-16T03:33:15.649Z,10.60
2018-10-16T03:35:43.852Z,10.70
2018-10-16T03:38:12.061Z,10.60
2018-10-16T03:40:40.268Z,10.70
2018-10-16T03:43:08.455Z,10.70
2018-10-16T03:45:36.646Z,10.70
2018-10-16T03:48:05.138Z,10.70
2018-10-16T03:50:33.362Z,10.70
2018-10-16T03:53:01.523Z,10.70
2018-10-16T03:55:29.692Z,10.60
2018-10-16T03:57:57.892Z,10.50
2018-10-16T04:00:26.103Z,10.40
2018-10-16T04:02:54.255Z,10.30
2018-10-16T04:05:22.446Z,10.30
2018-10-16T04:07:50.590Z,10.40
2018-10-16T04:10:18.768Z,10.40
2018-10-16T04:12:47.049Z,10.40
2018-10-16T04:15:15.197Z,10.40
2018-10-16T04:17:43.420Z,10.30
2018-10-16T04:20:11.585Z,10.40
2018-10-16T04:22:39.858Z,10.40
2018-10-16T04:25:09.874Z,10.50
2018-10-16T04:27:38.061Z,10.40
2018-10-16T04:30:06.876Z,10.40
2018-10-16T04:32:35.032Z,10.30
2018-10-16T04:35:06.752Z,10.30
2018-10-16T04:37:34.896Z,10.20
2018-10-16T04:40:03.140Z,10.10
2018-10-16T04:42:31.324Z,10.10
2018-10-16T04:44:59.592Z,10.00
2018-10-16T04:47:27.842Z,10.00
2018-10-16T04:49:56.035Z,9.90
2018-10-16T04:52:24.310Z,9.90
2018-10-16T04:54:52.528Z,9.90
2018-10-16T04:57:20.708Z,9.90
2018-10-16T04:59:48.912Z,10.00
2018-10-16T05:02:17.147Z,10.00
2018-10-16T05:04:45.409Z,10.10
2018-10-16T05:07:13.722Z,10.10
2018-10-16T05:09:41.915Z,10.20
2018-10-16T05:12:10.154Z,10.20
2018-10-16T05:14:38.350Z,10.20
2018-10-16T05:17:06.642Z,10.10
2018-10-16T05:19:34.882Z,10.10
2018-10-16T05:22:03.172Z,10.10
2018-10-16T05:24:31.354Z,10.10
2018-10-16T05:26:59.550Z,10.10
2018-10-16T05:29:27.839Z,10.10
2018-10-16T05:31:56.074Z,10.10
2018-10-16T05:34:24.292Z,10.10
2018-10-16T05:36:52.631Z,10.10
2018-10-16T05:39:20.969Z,10.10
2018-10-16T05:41:49.165Z,10.00
2018-10-16T05:44:17.904Z,10.00
2018-10-16T05:46:46.186Z,10.00
2018-10-16T05:49:14.496Z,10.00
2018-10-16T05:51:42.705Z,10.10
2018-10-16T05:54:10.980Z,10.10
2018-10-16T05:56:39.156Z,10.10
2018-10-16T05:59:07.319Z,10.10
2018-10-16T06:01:36.427Z,10.10
2018-10-16T06:04:05.381Z,10.10
2018-10-16T06:06:33.624Z,10.20
2018-10-16T06:09:01.967Z,10.20
2018-10-16T06:11:30.891Z,10.30
2018-10-16T06:15:28.634Z,10.30
2018-10-16T06:17:56.865Z,10.40
2018-10-16T06:20:25.118Z,10.50
2018-10-16T06:22:53.330Z,10.50
2018-10-16T06:25:21.535Z,10.60
2018-10-16T06:27:49.782Z,10.60
2018-10-16T06:30:17.980Z,10.60
2018-10-16T06:32:46.187Z,10.70
2018-10-16T06:35:14.413Z,10.70
2018-10-16T06:37:42.748Z,10.70
2018-10-16T06:40:11.293Z,10.80
2018-10-16T06:42:40.018Z,10.80
2018-10-16T06:45:09.504Z,10.90
2018-10-16T06:47:37.788Z,10.90
2018-10-16T06:50:07.638Z,11.00
2018-10-16T06:52:35.766Z,11.10
2018-10-16T06:55:04.025Z,11.10
2018-10-16T06:57:32.195Z,11.20
2018-10-16T07:00:00.429Z,11.30
2018-10-16T07:02:28.815Z,11.30
2018-10-16T07:04:57.069Z,11.40
2018-10-16T07:07:25.319Z,11.50
2018-10-16T07:09:53.471Z,11.50
2018-10-16T07:12:21.625Z,11.60
2018-10-16T07:14:49.861Z,11.70
2018-10-16T07:17:18.099Z,11.80
2018-10-16T07:19:46.228Z,11.90
2018-10-16T07:22:14.452Z,12.00
2018-10-16T07:24:42.625Z,12.10
2018-10-16T07:27:10.856Z,12.20
2018-10-16T07:29:39.121Z,12.30
2018-10-16T07:32:07.431Z,12.40
2018-10-16T07:34:42.275Z,12.50
2018-10-16T07:37:10.513Z,12.60
2018-10-16T07:39:38.719Z,12.70
2018-10-16T07:42:06.959Z,12.90
2018-10-16T07:44:35.168Z,13.00
2018-10-16T07:47:09.957Z,13.10
2018-10-16T07:49:38.146Z,13.20
2018-10-16T07:52:06.488Z,13.30
2018-10-16T07:54:34.685Z,13.40
2018-10-16T07:57:02.929Z,13.50
2018-10-16T07:59:32.151Z,13.60
2018-10-16T08:02:00.297Z,13.80
2018-10-16T08:04:28.475Z,13.90
2018-10-16T08:06:56.788Z,14.00
2018-10-16T08:09:25.016Z,14.10
2018-10-16T08:11:53.193Z,14.20
2018-10-16T08:14:21.823Z,14.30
2018-10-16T08:16:50.732Z,14.40
2018-10-16T08:19:18.998Z,14.60
2018-10-16T08:21:47.888Z,14.70
2018-10-16T08:24:16.042Z,14.80
2018-10-16T08:26:44.388Z,15.00
2018-10-16T08:29:12.576Z,15.10
2018-10-16T08:31:40.742Z,15.30
2018-10-16T08:34:09.230Z,15.40
2018-10-16T08:36:37.445Z,15.60
2018-10-16T08:39:18.844Z,15.70
2018-10-16T08:42:04.357Z,15.80
2018-10-16T08:45:19.233Z,16.00
2018-10-16T08:49:01.386Z,16.10
2018-10-16T08:51:35.092Z,16.20
2018-10-16T08:54:10.144Z,16.50
2018-10-16T08:56:38.404Z,16.90
2018-10-16T08:59:06.550Z,17.80
2018-10-16T09:01:34.858Z,19.20
2018-10-16T09:04:03.678Z,20.10
2018-10-16T09:06:32.424Z,20.90
2018-10-16T09:09:00.944Z,21.70
2018-10-16T09:11:29.134Z,22.20
2018-10-16T09:13:57.416Z,22.60
2018-10-16T09:16:25.610Z,23.30
2018-10-16T09:18:53.882Z,23.70
2018-10-16T09:21:22.168Z,24.10
2018-10-16T09:23:50.444Z,24.40
2018-10-16T09:26:18.783Z,24.30
2018-10-16T09:28:46.980Z,24.00
2018-10-16T09:31:15.226Z,24.20
2018-10-16T09:33:43.436Z,24.40
2018-10-16T09:36:11.793Z,24.60
2018-10-16T09:38:40.076Z,24.70
2018-10-16T09:41:08.528Z,25.30
2018-10-16T09:43:36.812Z,25.50
2018-10-16T09:46:05.257Z,25.20
2018-10-16T09:48:33.460Z,25.20
2018-10-16T09:51:01.732Z,25.30
2018-10-16T09:53:29.894Z,25.50
2018-10-16T09:55:58.221Z,25.90
2018-10-16T09:58:26.460Z,25.80
2018-10-16T10:01:00.100Z,25.90
2018-10-16T10:03:28.280Z,26.10
2018-10-16T10:05:56.484Z,26.00
2018-10-16T10:08:24.733Z,25.90
2018-10-16T10:10:52.982Z,25.60
2018-10-16T10:13:21.535Z,25.60
2018-10-16T10:15:49.758Z,25.30
2018-10-16T10:18:18.035Z,25.40
2018-10-16T10:20:46.242Z,25.80
2018-10-16T10:23:14.553Z,25.80
2018-10-16T10:25:42.701Z,25.80
2018-10-16T10:28:10.978Z,25.90
2018-10-16T10:30:39.207Z,25.60
2018-10-16T10:33:07.498Z,25.60
2018-10-16T10:35:35.898Z,25.90
2018-10-16T10:38:04.034Z,25.80
2018-10-16T10:40:32.285Z,25.50
2018-10-16T10:43:00.548Z,25.20
2018-10-16T10:45:28.770Z,25.00
2018-10-16T10:47:56.964Z,25.30
2018-10-16T10:50:25.510Z,25.40
2018-10-16T10:52:53.401Z,25.30
2018-10-16T10:55:21.635Z,25.40
2018-10-16T10:57:49.823Z,25.10
2018-10-16T11:00:18.026Z,24.60
2018-10-16T11:02:47.560Z,24.30
2018-10-16T11:05:15.777Z,23.90
2018-10-16T11:07:44.023Z,24.70
2018-10-16T11:10:13.530Z,25.50
2018-10-16T11:12:42.811Z,25.80
2018-10-16T11:15:11.072Z,26.20
2018-10-16T11:17:39.546Z,26.20
2018-10-16T11:20:09.345Z,26.00
2018-10-16T11:22:37.569Z,26.60
2018-10-16T11:25:07.085Z,26.20
2018-10-16T11:27:35.339Z,26.50
2018-10-16T11:30:03.567Z,26.80
2018-10-16T11:32:31.747Z,26.90
2018-10-16T11:34:59.974Z,27.20
2018-10-16T11:37:28.211Z,26.60
2018-10-16T11:39:56.485Z,26.40
2018-10-16T11:42:24.665Z,26.60
2018-10-16T11:44:52.963Z,26.20
2018-10-16T11:47:21.166Z,26.40
2018-10-16T11:49:49.432Z,26.10
2018-10-16T11:52:17.714Z,26.10
2018-10-16T11:54:45.924Z,26.40
2018-10-16T11:57:14.067Z,26.60
2018-10-16T11:59:42.267Z,26.90
2018-10-16T12:02:10.503Z,27.70
2018-10-16T12:04:41.082Z,28.40
2018-10-16T12:07:09.340Z,28.30
2018-10-16T12:09:37.618Z,28.20
2018-10-16T12:12:05.824Z,27.40
2018-10-16T12:14:34.007Z,26.90
2018-10-16T12:17:07.180Z,26.80
2018-10-16T12:19:38.529Z,26.70
2018-10-16T12:22:06.750Z,26.90
2018-10-16T12:24:34.968Z,26.80
2018-10-16T12:27:03.202Z,27.00
2018-10-16T12:29:31.389Z,27.70
2018-10-16T12:32:01.054Z,27.10
2018-10-16T12:34:29.280Z,26.80
2018-10-16T12:36:57.517Z,26.70
2018-10-16T12:39:25.827Z,26.60
2018-10-16T12:41:54.071Z,26.30
2018-10-16T12:44:22.318Z,25.90
2018-10-16T12:46:50.535Z,26.10
2018-10-16T12:49:18.862Z,26.10
2018-10-16T12:51:47.142Z,25.90
2018-10-16T12:54:15.379Z,25.60
2018-10-16T12:56:43.621Z,25.50
2018-10-16T12:59:11.901Z,25.40
2018-10-16T13:01:40.064Z,25.20
2018-10-16T13:04:08.280Z,25.10
2018-10-16T13:06:36.497Z,25.00
2018-10-16T13:09:07.636Z,24.80
2018-10-16T13:11:35.809Z,24.80
2018-10-16T13:14:04.086Z,24.90
2018-10-16T13:16:32.298Z,25.00
2018-10-16T13:19:00.473Z,24.80
2018-10-16T13:21:28.716Z,24.50
2018-10-16T13:23:56.954Z,24.30
2018-10-16T13:26:31.857Z,24.20
2018-10-16T13:29:00.208Z,24.70
2018-10-16T13:31:29.100Z,25.20
2018-10-16T13:33:57.337Z,25.50
2018-10-16T13:36:25.518Z,25.40
2018-10-16T13:38:53.715Z,25.50
2018-10-16T13:41:22.102Z,25.00
2018-10-16T13:43:50.344Z,24.80
2018-10-16T13:46:18.679Z,24.50
2018-10-16T13:48:46.892Z,24.30
2018-10-16T13:51:15.171Z,24.00
2018-10-16T13:53:43.546Z,23.70
2018-10-16T13:56:11.995Z,23.40
2018-10-16T13:58:40.207Z,22.90
2018-10-16T14:01:08.396Z,22.60
2018-10-16T14:03:36.714Z,22.50
2018-10-16T14:06:04.982Z,22.40
2018-10-16T14:08:33.227Z,22.30
2018-10-16T14:11:01.440Z,22.10
2018-10-16T14:13:29.721Z,22.10
2018-10-16T14:15:58.078Z,22.10
2018-10-16T14:18:26.320Z,22.20
2018-10-16T14:20:54.501Z,22.10
2018-10-16T14:23:22.815Z,22.00
2018-10-16T14:25:51.036Z,21.90
2018-10-16T14:28:19.498Z,21.80
2018-10-16T14:30:47.745Z,21.80
2018-10-16T14:33:15.994Z,21.70
2018-10-16T14:35:44.499Z,21.50
2018-10-16T14:38:12.916Z,21.30
2018-10-16T14:40:41.177Z,21.20
2018-10-16T14:43:09.536Z,20.90
2018-10-16T14:45:37.759Z,20.80
2018-10-16T14:48:06.056Z,20.70
2018-10-16T14:50:34.239Z,20.60
2018-10-16T14:53:02.470Z,20.60
2018-10-16T14:55:30.769Z,20.40
2018-10-16T14:57:59.045Z,20.30
2018-10-16T15:00:33.636Z,20.20
2018-10-16T15:03:01.987Z,20.10
2018-10-16T15:05:30.225Z,20.10
2018-10-16T15:07:58.490Z,20.00
2018-10-16T15:10:26.712Z,19.90
2018-10-16T15:12:54.883Z,19.80
2018-10-16T15:15:23.113Z,19.70
2018-10-16T15:17:51.365Z,19.50
2018-10-16T15:20:19.573Z,19.40
2018-10-16T15:22:47.779Z,19.30
2018-10-16T15:25:15.949Z,19.10
2018-10-16T15:27:44.155Z,19.00
2018-10-16T15:30:12.352Z,18.90
2018-10-16T15:32:40.588Z,18.90
2018-10-16T15:35:10.141Z,18.90
2018-10-16T15:37:38.737Z,18.90
2018-10-16T15:40:08.283Z,18.90
2018-10-16T15:42:36.541Z,18.90
2018-10-16T15:45:05.994Z,18.80
2018-10-16T15:47:34.210Z,18.80
2018-10-16T15:50:02.820Z,18.70
2018-10-16T15:52:31.063Z,18.50
2018-10-16T15:54:59.292Z,18.40
2018-10-16T15:57:27.503Z,18.30
2018-10-16T15:59:55.770Z,18.10
2018-10-16T16:02:23.957Z,18.00
2018-10-16T16:04:52.161Z,17.90
2018-10-16T16:07:20.388Z,17.70
2018-10-16T16:09:48.637Z,17.60
2018-10-16T16:12:16.853Z,17.50
2018-10-16T16:14:45.066Z,17.40
2018-10-16T16:17:13.281Z,17.30
2018-10-16T16:19:41.503Z,17.20
2018-10-16T16:22:09.859Z,17.20
2018-10-16T16:24:38.027Z,17.10
2018-10-16T16:27:06.167Z,17.00
2018-10-16T16:29:34.449Z,16.90
2018-10-16T16:32:02.676Z,16.80
2018-10-16T16:34:30.960Z,16.70
2018-10-16T16:36:59.137Z,16.60
2018-10-16T16:39:27.434Z,16.50
2018-10-16T16:41:55.570Z,16.40
2018-10-16T16:44:24.956Z,16.40
2018-10-16T16:46:53.216Z,16.30
2018-10-16T16:49:21.561Z,16.20
2018-10-16T16:51:49.921Z,16.10
2018-10-16T16:54:18.357Z,16.00
2018-10-16T16:56:46.777Z,16.00
2018-10-16T16:59:14.999Z,15.90
2018-10-16T17:01:43.253Z,15.90
2018-10-16T17:04:11.615Z,15.80
2018-10-16T17:06:46.430Z,15.80
2018-10-16T17:09:14.625Z,15.80
2018-10-16T17:11:42.841Z,15.70
2018-10-16T17:14:11.092Z,15.60
2018-10-16T17:16:39.457Z,15.60
2018-10-16T17:19:08.048Z,15.60
2018-10-16T17:21:36.402Z,15.50
2018-10-16T17:24:04.886Z,15.50
2018-10-16T17:26:33.347Z,15.40
2018-10-16T17:29:01.843Z,15.40
2018-10-16T17:31:30.110Z,15.40
2018-10-16T17:33:58.410Z,15.40
2018-10-16T17:36:27.612Z,15.30
2018-10-16T17:38:55.984Z,15.30
2018-10-16T17:41:24.176Z,15.20
2018-10-16T17:43:52.385Z,15.20
2018-10-16T17:46:20.644Z,15.10
2018-10-16T17:48:48.977Z,15.10
2018-10-16T17:51:17.240Z,15.00
2018-10-16T17:53:45.518Z,14.90
2018-10-16T17:56:13.744Z,14.90
2018-10-16T17:58:42.676Z,14.80
2018-10-16T18:01:12.391Z,14.70
2018-10-16T18:03:40.642Z,14.70
2018-10-16T18:06:08.823Z,14.60
2018-10-16T18:08:39.988Z,14.60
2018-10-16T18:11:08.476Z,14.60
2018-10-16T18:13:36.944Z,14.50
2018-10-16T18:16:05.940Z,14.50
2018-10-16T18:18:34.838Z,14.50
2018-10-16T18:21:03.428Z,14.40
2018-10-16T18:23:31.721Z,14.40
2018-10-16T18:26:00.780Z,14.40
2018-10-16T18:28:29.229Z,14.40
2018-10-16T18:30:57.488Z,14.40
2018-10-16T18:33:25.911Z,14.30
2018-10-16T18:35:54.646Z,14.30
2018-10-16T18:38:23.471Z,14.30
2018-10-16T18:40:52.096Z,14.30
2018-10-16T18:43:20.972Z,14.20
2018-10-16T18:45:49.549Z,14.20
2018-10-16T18:48:18.174Z,14.10
2018-10-16T18:50:47.864Z,14.10
2018-10-16T18:53:16.336Z,14.00
2018-10-16T18:55:51.158Z,14.00
2018-10-16T18:58:20.006Z,14.00
2018-10-16T19:00:48.498Z,13.90
2018-10-16T19:03:16.875Z,13.90
2018-10-16T19:05:45.190Z,13.90
2018-10-16T19:08:16.946Z,13.80
2018-10-16T19:10:45.204Z,13.80
2018-10-16T19:13:14.010Z,13.80
2018-10-16T19:15:42.315Z,13.80
2018-10-16T19:18:10.755Z,13.70
2018-10-16T19:20:39.095Z,13.80
2018-10-16T19:23:07.757Z,13.70
2018-10-16T19:25:36.044Z,13.70
2018-10-16T19:28:04.484Z,13.70
2018-10-16T19:30:32.845Z,13.70
2018-10-16T19:33:01.182Z,13.60
2018-10-16T19:35:29.547Z,13.60
2018-10-16T19:37:57.970Z,13.60
2018-10-16T19:40:26.198Z,13.50
2018-10-16T19:42:54.470Z,13.50
2018-10-16T19:45:22.828Z,13.50
2018-10-16T19:47:51.172Z,13.40
2018-10-16T19:50:19.679Z,13.40
2018-10-16T19:52:48.035Z,13.40
2018-10-16T19:55:16.372Z,13.40
2018-10-16T19:57:44.677Z,13.30
2018-10-16T20:00:12.939Z,13.30
2018-10-16T20:02:41.249Z,13.30
2018-10-16T20:05:09.737Z,13.30
2018-10-16T20:07:38.571Z,13.20
2018-10-16T20:10:07.879Z,13.20
2018-10-16T20:12:36.421Z,13.20
2018-10-16T20:15:06.228Z,13.20
2018-10-16T20:17:34.547Z,13.30
2018-10-16T20:20:02.782Z,13.30
2018-10-16T20:22:31.012Z,13.30
2018-10-16T20:24:59.245Z,13.30
2018-10-16T20:27:27.477Z,13.40
2018-10-16T20:29:55.765Z,13.40
2018-10-16T20:32:24.027Z,13.40
2018-10-16T20:34:52.313Z,13.40
2018-10-16T20:37:20.551Z,13.40
2018-10-16T20:39:48.795Z,13.40
2018-10-16T20:42:17.093Z,13.40
2018-10-16T20:44:45.265Z,13.30
2018-10-16T20:47:13.477Z,13.30
2018-10-16T20:49:41.739Z,13.30
2018-10-16T20:52:09.947Z,13.20
2018-10-16T20:54:38.228Z,13.20
2018-10-16T20:57:06.459Z,13.20
2018-10-16T20:59:34.651Z,13.20
2018-10-16T21:02:02.893Z,13.20
2018-10-16T21:04:31.144Z,13.20
2018-10-16T21:06:59.645Z,13.20
2018-10-16T21:09:27.762Z,13.10
2018-10-16T21:11:55.962Z,13.10
2018-10-16T21:14:24.179Z,13.10
2018-10-16T21:16:52.454Z,13.00
2018-10-16T21:19:20.737Z,13.00
2018-10-16T21:21:48.914Z,13.00
2018-10-16T21:24:17.116Z,13.00
2018-10-16T21:26:49.803Z,12.90
2018-10-16T21:29:17.939Z,12.90
2018-10-16T21:31:46.188Z,12.90
2018-10-16T21:34:14.440Z,12.90
2018-10-16T21:36:42.668Z,12.90
2018-10-16T21:39:10.885Z,12.90
2018-10-16T21:41:39.224Z,12.80
2018-10-16T21:44:07.464Z,12.80
2018-10-16T21:46:35.672Z,12.80
2018-10-16T21:49:03.969Z,12.70
2018-10-16T21:51:32.134Z,12.70
2018-10-16T21:54:00.352Z,12.70
2018-10-16T21:56:28.557Z,12.60
2018-10-16T21:58:56.848Z,12.70
2018-10-16T22:01:30.429Z,12.70
2018-10-16T22:03:58.662Z,12.70
2018-10-16T22:06:26.850Z,12.60
2018-10-16T22:08:55.101Z,12.50
2018-10-16T22:11:24.614Z,12.50
2018-10-16T22:13:52.826Z,12.40
2018-10-16T22:16:21.051Z,12.40
2018-10-16T22:18:49.257Z,12.30
2018-10-16T22:21:17.604Z,12.20
2018-10-16T22:23:45.803Z,12.10
2018-10-16T22:26:13.951Z,12.00
2018-10-16T22:28:42.160Z,12.00
2018-10-16T22:31:10.477Z,11.90
2018-10-16T22:33:38.673Z,11.90
2018-10-16T22:36:06.919Z,11.80
2018-10-16T22:38:35.165Z,11.80
2018-10-16T22:41:03.924Z,11.80
2018-10-16T22:43:32.454Z,11.80
2018-10-16T22:46:03.439Z,11.80
2018-10-16T22:48:32.539Z,11.80
2018-10-16T22:51:01.030Z,11.80
2018-10-16T22:53:29.940Z,11.70
2018-10-16T22:55:59.890Z,11.70
2018-10-16T22:58:28.397Z,11.70
2018-10-16T23:00:56.862Z,11.70
2018-10-16T23:03:25.092Z,11.60
2018-10-16T23:05:54.689Z,11.60
2018-10-16T23:08:22.942Z,11.60
2018-10-16T23:10:51.281Z,11.60
2018-10-16T23:13:19.567Z,11.60
2018-10-16T23:15:47.844Z,11.60
2018-10-16T23:18:18.449Z,11.60
2018-10-16T23:20:47.894Z,11.60
2018-10-16T23:23:16.361Z,11.60
2018-10-16T23:25:47.796Z,11.60
2018-10-16T23:28:15.980Z,11.50
2018-10-16T23:30:44.249Z,11.50
2018-10-16T23:33:12.436Z,11.50
2018-10-16T23:35:40.629Z,11.40
2018-10-16T23:38:08.799Z,11.40
2018-10-16T23:40:37.079Z,11.30
2018-10-16T23:43:05.374Z,11.40
2018-10-16T23:45:38.686Z,11.40
2018-10-16T23:48:07.009Z,11.30
2018-10-16T23:50:35.289Z,11.30
2018-10-16T23:53:03.526Z,11.30
2018-10-16T23:55:31.701Z,11.30
2018-10-16T23:57:59.857Z,11.30
